Cerrillos, Argentina
Current Conditions -  °F | °C
As of 6:00 AM on Tuesday 21 Oct 2014 (Local Time) from SASA Reporting Station
Broken Clouds Broken Clouds  
Wind Chill: 59°   Ceiling: 1800
Heat Index: 59°   Visibility: 6mi
Dew Point: 57°   Wind: 0mph
Humidity: 94%   Direction: NA
Pressure: 30.18"   Gusts: NA
Location:  24.9°S, 65.48°W
Report Text: SASA 210900Z 00000KT 9999 FEW008 BKN01815/14 Q1022
Loading
Personal Weather Stations






























Interactive Weather Map
Tropical Storm Tracking
New forecast layout! Learn more

10-Day Weather Forecast

Advertisements
Track Severe Weather on mobile